<?xml version="1.0" encoding="UTF-8"?>
<gpx
  version="1.0"
  creator="GPSBabel - http://www.gpsbabel.org"
  xmlns:xsi="http://www.w3.org/2001/XMLSchema-instance"
  xmlns="http://www.topografix.com/GPX/1/0"
  xsi:schemaLocation="http://www.topografix.com/GPX/1/1 http://www.topografix.com/GPX/1/1/gpx.xsd">
<time>2015-12-13T07:30:01Z</time>
<bounds minlat="47.620831000" minlon="16.646318000" maxlat="47.955833000" maxlon="16.869272000"/>
<trk>
  <name>103608</name>
<trkseg>
<trkpt lat="47.831779000" lon="16.664534000">
  <ele>124.000000</ele>
  <time>2012-05-01T08:00:00Z</time>
</trkpt>
<trkpt lat="47.831345000" lon="16.660572000">
  <ele>134.000000</ele>
  <time>2012-05-01T08:00:33Z</time>
</trkpt>
<trkpt lat="47.831131000" lon="16.660419000">
  <ele>134.000000</ele>
  <time>2012-05-01T08:01:06Z</time>
</trkpt>
<trkpt lat="47.829384000" lon="16.662025000">
  <ele>131.000000</ele>
  <time>2012-05-01T08:01:39Z</time>
</trkpt>
<trkpt lat="47.828819000" lon="16.661791000">
  <ele>131.000000</ele>
  <time>2012-05-01T08:02:12Z</time>
</trkpt>
<trkpt lat="47.828041000" lon="16.660650000">
  <ele>132.000000</ele>
  <time>2012-05-01T08:02:45Z</time>
</trkpt>
<trkpt lat="47.826015000" lon="16.658346000">
  <ele>136.000000</ele>
  <time>2012-05-01T08:03:18Z</time>
</trkpt>
<trkpt lat="47.824230000" lon="16.657240000">
  <ele>141.000000</ele>
  <time>2012-05-01T08:03:51Z</time>
</trkpt>
<trkpt lat="47.823624000" lon="16.657204000">
  <ele>142.000000</ele>
  <time>2012-05-01T08:04:24Z</time>
</trkpt>
<trkpt lat="47.822247000" lon="16.657864000">
  <ele>138.000000</ele>
  <time>2012-05-01T08:04:57Z</time>
</trkpt>
<trkpt lat="47.819530000" lon="16.657234000">
  <ele>137.000000</ele>
  <time>2012-05-01T08:05:30Z</time>
</trkpt>
<trkpt lat="47.817165000" lon="16.655874000">
  <ele>138.000000</ele>
  <time>2012-05-01T08:06:03Z</time>
</trkpt>
<trkpt lat="47.816406000" lon="16.655983000">
  <ele>137.000000</ele>
  <time>2012-05-01T08:06:36Z</time>
</trkpt>
<trkpt lat="47.812374000" lon="16.659653000">
  <ele>122.000000</ele>
  <time>2012-05-01T08:07:09Z</time>
</trkpt>
<trkpt lat="47.808670000" lon="16.662600000">
  <ele>120.000000</ele>
  <time>2012-05-01T08:07:42Z</time>
</trkpt>
<trkpt lat="47.805916000" lon="16.664257000">
  <ele>121.000000</ele>
  <time>2012-05-01T08:08:15Z</time>
</trkpt>
<trkpt lat="47.805279000" lon="16.664894000">
  <ele>121.000000</ele>
  <time>2012-05-01T08:08:48Z</time>
</trkpt>
<trkpt lat="47.805538000" lon="16.663906000">
  <ele>123.000000</ele>
  <time>2012-05-01T08:09:21Z</time>
</trkpt>
<trkpt lat="47.800850000" lon="16.667208000">
  <ele>130.000000</ele>
  <time>2012-05-01T08:09:54Z</time>
</trkpt>
<trkpt lat="47.795547000" lon="16.668747000">
  <ele>138.000000</ele>
  <time>2012-05-01T08:10:27Z</time>
</trkpt>
<trkpt lat="47.794518000" lon="16.669468000">
  <ele>137.000000</ele>
  <time>2012-05-01T08:11:00Z</time>
</trkpt>
<trkpt lat="47.793018000" lon="16.670036000">
  <ele>137.000000</ele>
  <time>2012-05-01T08:11:33Z</time>
</trkpt>
<trkpt lat="47.791142000" lon="16.670004000">
  <ele>136.000000</ele>
  <time>2012-05-01T08:12:06Z</time>
</trkpt>
<trkpt lat="47.787632000" lon="16.669437000">
  <ele>136.000000</ele>
  <time>2012-05-01T08:12:39Z</time>
</trkpt>
<trkpt lat="47.786964000" lon="16.669062000">
  <ele>135.000000</ele>
  <time>2012-05-01T08:13:12Z</time>
</trkpt>
<trkpt lat="47.785355000" lon="16.668686000">
  <ele>138.000000</ele>
  <time>2012-05-01T08:13:45Z</time>
</trkpt>
<trkpt lat="47.782280000" lon="16.668671000">
  <ele>135.000000</ele>
  <time>2012-05-01T08:14:18Z</time>
</trkpt>
<trkpt lat="47.779842000" lon="16.668133000">
  <ele>137.000000</ele>
  <time>2012-05-01T08:14:51Z</time>
</trkpt>
<trkpt lat="47.777306000" lon="16.668152000">
  <ele>131.000000</ele>
  <time>2012-05-01T08:15:24Z</time>
</trkpt>
<trkpt lat="47.770218000" lon="16.667219000">
  <ele>134.000000</ele>
  <time>2012-05-01T08:15:57Z</time>
</trkpt>
<trkpt lat="47.765430000" lon="16.668161000">
  <ele>139.000000</ele>
  <time>2012-05-01T08:16:30Z</time>
</trkpt>
<trkpt lat="47.763058000" lon="16.667538000">
  <ele>139.000000</ele>
  <time>2012-05-01T08:17:03Z</time>
</trkpt>
<trkpt lat="47.761147000" lon="16.665871000">
  <ele>142.000000</ele>
  <time>2012-05-01T08:17:36Z</time>
</trkpt>
<trkpt lat="47.759933000" lon="16.665836000">
  <ele>138.000000</ele>
  <time>2012-05-01T08:18:09Z</time>
</trkpt>
<trkpt lat="47.758980000" lon="16.665476000">
  <ele>138.000000</ele>
  <time>2012-05-01T08:18:42Z</time>
</trkpt>
<trkpt lat="47.757992000" lon="16.666023000">
  <ele>135.000000</ele>
  <time>2012-05-01T08:19:15Z</time>
</trkpt>
<trkpt lat="47.753780000" lon="16.666012000">
  <ele>127.000000</ele>
  <time>2012-05-01T08:19:48Z</time>
</trkpt>
<trkpt lat="47.750492000" lon="16.664169000">
  <ele>126.000000</ele>
  <time>2012-05-01T08:20:21Z</time>
</trkpt>
<trkpt lat="47.745785000" lon="16.659870000">
  <ele>142.000000</ele>
  <time>2012-05-01T08:20:54Z</time>
</trkpt>
<trkpt lat="47.744911000" lon="16.659378000">
  <ele>145.000000</ele>
  <time>2012-05-01T08:21:27Z</time>
</trkpt>
<trkpt lat="47.743465000" lon="16.658007000">
  <ele>149.000000</ele>
  <time>2012-05-01T08:22:00Z</time>
</trkpt>
<trkpt lat="47.743298000" lon="16.658073000">
  <ele>148.000000</ele>
  <time>2012-05-01T08:22:33Z</time>
</trkpt>
<trkpt lat="47.740566000" lon="16.656504000">
  <ele>152.000000</ele>
  <time>2012-05-01T08:23:06Z</time>
</trkpt>
<trkpt lat="47.738750000" lon="16.654169000">
  <ele>160.000000</ele>
  <time>2012-05-01T08:23:39Z</time>
</trkpt>
<trkpt lat="47.737743000" lon="16.653257000">
  <ele>161.000000</ele>
  <time>2012-05-01T08:24:12Z</time>
</trkpt>
<trkpt lat="47.735455000" lon="16.650341000">
  <ele>168.000000</ele>
  <time>2012-05-01T08:24:45Z</time>
</trkpt>
<trkpt lat="47.733547000" lon="16.648235000">
  <ele>161.000000</ele>
  <time>2012-05-01T08:25:18Z</time>
</trkpt>
<trkpt lat="47.731213000" lon="16.648060000">
  <ele>161.000000</ele>
  <time>2012-05-01T08:25:51Z</time>
</trkpt>
<trkpt lat="47.730537000" lon="16.647133000">
  <ele>164.000000</ele>
  <time>2012-05-01T08:26:24Z</time>
</trkpt>
<trkpt lat="47.730392000" lon="16.647509000">
  <ele>163.000000</ele>
  <time>2012-05-01T08:26:57Z</time>
</trkpt>
<trkpt lat="47.727673000" lon="16.646402000">
  <ele>162.000000</ele>
  <time>2012-05-01T08:27:30Z</time>
</trkpt>
<trkpt lat="47.725521000" lon="16.646318000">
  <ele>166.000000</ele>
  <time>2012-05-01T08:28:03Z</time>
</trkpt>
<trkpt lat="47.723442000" lon="16.648508000">
  <ele>158.000000</ele>
  <time>2012-05-01T08:28:36Z</time>
</trkpt>
<trkpt lat="47.722122000" lon="16.649485000">
  <ele>156.000000</ele>
  <time>2012-05-01T08:29:09Z</time>
</trkpt>
<trkpt lat="47.720165000" lon="16.650396000">
  <ele>150.000000</ele>
  <time>2012-05-01T08:29:42Z</time>
</trkpt>
<trkpt lat="47.717720000" lon="16.653027000">
  <ele>133.000000</ele>
  <time>2012-05-01T08:30:15Z</time>
</trkpt>
<trkpt lat="47.715088000" lon="16.655407000">
  <ele>122.000000</ele>
  <time>2012-05-01T08:30:48Z</time>
</trkpt>
<trkpt lat="47.713642000" lon="16.655968000">
  <ele>124.000000</ele>
  <time>2012-05-01T08:31:21Z</time>
</trkpt>
<trkpt lat="47.712887000" lon="16.656483000">
  <ele>124.000000</ele>
  <time>2012-05-01T08:31:54Z</time>
</trkpt>
<trkpt lat="47.711327000" lon="16.656887000">
  <ele>127.000000</ele>
  <time>2012-05-01T08:32:27Z</time>
</trkpt>
<trkpt lat="47.710155000" lon="16.656626000">
  <ele>131.000000</ele>
  <time>2012-05-01T08:33:00Z</time>
</trkpt>
<trkpt lat="47.705288000" lon="16.657436000">
  <ele>127.000000</ele>
  <time>2012-05-01T08:33:33Z</time>
</trkpt>
<trkpt lat="47.704281000" lon="16.657808000">
  <ele>125.000000</ele>
  <time>2012-05-01T08:34:06Z</time>
</trkpt>
<trkpt lat="47.703140000" lon="16.659027000">
  <ele>121.000000</ele>
  <time>2012-05-01T08:34:39Z</time>
</trkpt>
<trkpt lat="47.701351000" lon="16.660025000">
  <ele>117.000000</ele>
  <time>2012-05-01T08:35:12Z</time>
</trkpt>
<trkpt lat="47.698299000" lon="16.660189000">
  <ele>118.000000</ele>
  <time>2012-05-01T08:35:45Z</time>
</trkpt>
<trkpt lat="47.695488000" lon="16.661428000">
  <ele>116.000000</ele>
  <time>2012-05-01T08:36:18Z</time>
</trkpt>
<trkpt lat="47.694130000" lon="16.662722000">
  <ele>115.000000</ele>
  <time>2012-05-01T08:36:51Z</time>
</trkpt>
<trkpt lat="47.693447000" lon="16.662909000">
  <ele>116.000000</ele>
  <time>2012-05-01T08:37:24Z</time>
</trkpt>
<trkpt lat="47.691921000" lon="16.662766000">
  <ele>118.000000</ele>
  <time>2012-05-01T08:37:57Z</time>
</trkpt>
<trkpt lat="47.687267000" lon="16.664564000">
  <ele>118.000000</ele>
  <time>2012-05-01T08:38:30Z</time>
</trkpt>
<trkpt lat="47.685966000" lon="16.664608000">
  <ele>118.000000</ele>
  <time>2012-05-01T08:39:03Z</time>
</trkpt>
<trkpt lat="47.683414000" lon="16.665485000">
  <ele>119.000000</ele>
  <time>2012-05-01T08:39:36Z</time>
</trkpt>
<trkpt lat="47.681431000" lon="16.668720000">
  <ele>118.000000</ele>
  <time>2012-05-01T08:40:09Z</time>
</trkpt>
<trkpt lat="47.680882000" lon="16.670027000">
  <ele>116.000000</ele>
  <time>2012-05-01T08:40:42Z</time>
</trkpt>
<trkpt lat="47.680199000" lon="16.672779000">
  <ele>116.000000</ele>
  <time>2012-05-01T08:41:15Z</time>
</trkpt>
<trkpt lat="47.678993000" lon="16.674379000">
  <ele>119.000000</ele>
  <time>2012-05-01T08:41:48Z</time>
</trkpt>
<trkpt lat="47.676884000" lon="16.675400000">
  <ele>124.000000</ele>
  <time>2012-05-01T08:42:21Z</time>
</trkpt>
<trkpt lat="47.676605000" lon="16.675335000">
  <ele>125.000000</ele>
  <time>2012-05-01T08:42:54Z</time>
</trkpt>
<trkpt lat="47.675697000" lon="16.673996000">
  <ele>137.000000</ele>
  <time>2012-05-01T08:43:27Z</time>
</trkpt>
<trkpt lat="47.670280000" lon="16.671495000">
  <ele>138.000000</ele>
  <time>2012-05-01T08:44:00Z</time>
</trkpt>
<trkpt lat="47.668690000" lon="16.671001000">
  <ele>136.000000</ele>
  <time>2012-05-01T08:44:33Z</time>
</trkpt>
<trkpt lat="47.664646000" lon="16.668941000">
  <ele>131.000000</ele>
  <time>2012-05-01T08:45:06Z</time>
</trkpt>
<trkpt lat="47.660660000" lon="16.667988000">
  <ele>131.000000</ele>
  <time>2012-05-01T08:45:39Z</time>
</trkpt>
<trkpt lat="47.657757000" lon="16.666365000">
  <ele>131.000000</ele>
  <time>2012-05-01T08:46:12Z</time>
</trkpt>
<trkpt lat="47.655521000" lon="16.665529000">
  <ele>130.000000</ele>
  <time>2012-05-01T08:46:45Z</time>
</trkpt>
<trkpt lat="47.653500000" lon="16.665409000">
  <ele>125.000000</ele>
  <time>2012-05-01T08:47:18Z</time>
</trkpt>
<trkpt lat="47.651974000" lon="16.665684000">
  <ele>123.000000</ele>
  <time>2012-05-01T08:47:51Z</time>
</trkpt>
<trkpt lat="47.649216000" lon="16.665762000">
  <ele>125.000000</ele>
  <time>2012-05-01T08:48:24Z</time>
</trkpt>
<trkpt lat="47.648693000" lon="16.666035000">
  <ele>126.000000</ele>
  <time>2012-05-01T08:48:57Z</time>
</trkpt>
<trkpt lat="47.648216000" lon="16.666725000">
  <ele>125.000000</ele>
  <time>2012-05-01T08:49:30Z</time>
</trkpt>
<trkpt lat="47.645676000" lon="16.667933000">
  <ele>127.000000</ele>
  <time>2012-05-01T08:50:03Z</time>
</trkpt>
<trkpt lat="47.645397000" lon="16.668249000">
  <ele>125.000000</ele>
  <time>2012-05-01T08:50:36Z</time>
</trkpt>
<trkpt lat="47.644814000" lon="16.669600000">
  <ele>126.000000</ele>
  <time>2012-05-01T08:51:09Z</time>
</trkpt>
<trkpt lat="47.642693000" lon="16.672110000">
  <ele>125.000000</ele>
  <time>2012-05-01T08:51:42Z</time>
</trkpt>
<trkpt lat="47.640503000" lon="16.675707000">
  <ele>125.000000</ele>
  <time>2012-05-01T08:52:15Z</time>
</trkpt>
<trkpt lat="47.639874000" lon="16.680038000">
  <ele>123.000000</ele>
  <time>2012-05-01T08:52:48Z</time>
</trkpt>
<trkpt lat="47.639118000" lon="16.683252000">
  <ele>123.000000</ele>
  <time>2012-05-01T08:53:21Z</time>
</trkpt>
<trkpt lat="47.636234000" lon="16.700317000">
  <ele>120.000000</ele>
  <time>2012-05-01T08:53:54Z</time>
</trkpt>
<trkpt lat="47.635910000" lon="16.701204000">
  <ele>124.000000</ele>
  <time>2012-05-01T08:54:27Z</time>
</trkpt>
<trkpt lat="47.635895000" lon="16.702576000">
  <ele>123.000000</ele>
  <time>2012-05-01T08:55:00Z</time>
</trkpt>
<trkpt lat="47.635490000" lon="16.705833000">
  <ele>126.000000</ele>
  <time>2012-05-01T08:55:33Z</time>
</trkpt>
<trkpt lat="47.635132000" lon="16.707457000">
  <ele>126.000000</ele>
  <time>2012-05-01T08:56:06Z</time>
</trkpt>
<trkpt lat="47.634697000" lon="16.712248000">
  <ele>122.000000</ele>
  <time>2012-05-01T08:56:39Z</time>
</trkpt>
<trkpt lat="47.634151000" lon="16.715506000">
  <ele>122.000000</ele>
  <time>2012-05-01T08:57:12Z</time>
</trkpt>
<trkpt lat="47.632648000" lon="16.722174000">
  <ele>122.000000</ele>
  <time>2012-05-01T08:57:45Z</time>
</trkpt>
<trkpt lat="47.631886000" lon="16.727690000">
  <ele>126.000000</ele>
  <time>2012-05-01T08:58:18Z</time>
</trkpt>
<trkpt lat="47.630619000" lon="16.731539000">
  <ele>122.000000</ele>
  <time>2012-05-01T08:58:51Z</time>
</trkpt>
<trkpt lat="47.630188000" lon="16.733437000">
  <ele>125.000000</ele>
  <time>2012-05-01T08:59:24Z</time>
</trkpt>
<trkpt lat="47.626926000" lon="16.741409000">
  <ele>124.000000</ele>
  <time>2012-05-01T08:59:57Z</time>
</trkpt>
<trkpt lat="47.626469000" lon="16.742056000">
  <ele>124.000000</ele>
  <time>2012-05-01T09:00:30Z</time>
</trkpt>
<trkpt lat="47.625591000" lon="16.744053000">
  <ele>123.000000</ele>
  <time>2012-05-01T09:01:03Z</time>
</trkpt>
<trkpt lat="47.624916000" lon="16.747068000">
  <ele>119.000000</ele>
  <time>2012-05-01T09:01:36Z</time>
</trkpt>
<trkpt lat="47.624573000" lon="16.748011000">
  <ele>119.000000</ele>
  <time>2012-05-01T09:02:09Z</time>
</trkpt>
<trkpt lat="47.623623000" lon="16.749405000">
  <ele>121.000000</ele>
  <time>2012-05-01T09:02:42Z</time>
</trkpt>
<trkpt lat="47.623020000" lon="16.751827000">
  <ele>121.000000</ele>
  <time>2012-05-01T09:03:15Z</time>
</trkpt>
<trkpt lat="47.622662000" lon="16.752432000">
  <ele>122.000000</ele>
  <time>2012-05-01T09:03:48Z</time>
</trkpt>
<trkpt lat="47.622093000" lon="16.755348000">
  <ele>122.000000</ele>
  <time>2012-05-01T09:04:21Z</time>
</trkpt>
<trkpt lat="47.622040000" lon="16.756413000">
  <ele>122.000000</ele>
  <time>2012-05-01T09:04:54Z</time>
</trkpt>
<trkpt lat="47.621223000" lon="16.759186000">
  <ele>120.000000</ele>
  <time>2012-05-01T09:05:27Z</time>
</trkpt>
<trkpt lat="47.620831000" lon="16.765514000">
  <ele>123.000000</ele>
  <time>2012-05-01T09:06:00Z</time>
</trkpt>
<trkpt lat="47.621151000" lon="16.767620000">
  <ele>117.000000</ele>
  <time>2012-05-01T09:06:33Z</time>
</trkpt>
<trkpt lat="47.621243000" lon="16.772610000">
  <ele>118.000000</ele>
  <time>2012-05-01T09:07:06Z</time>
</trkpt>
<trkpt lat="47.621735000" lon="16.775900000">
  <ele>120.000000</ele>
  <time>2012-05-01T09:07:39Z</time>
</trkpt>
<trkpt lat="47.621494000" lon="16.776251000">
  <ele>123.000000</ele>
  <time>2012-05-01T09:08:12Z</time>
</trkpt>
<trkpt lat="47.621582000" lon="16.778532000">
  <ele>122.000000</ele>
  <time>2012-05-01T09:08:45Z</time>
</trkpt>
<trkpt lat="47.621143000" lon="16.788546000">
  <ele>122.000000</ele>
  <time>2012-05-01T09:09:18Z</time>
</trkpt>
<trkpt lat="47.621304000" lon="16.790552000">
  <ele>122.000000</ele>
  <time>2012-05-01T09:09:51Z</time>
</trkpt>
<trkpt lat="47.621845000" lon="16.792503000">
  <ele>121.000000</ele>
  <time>2012-05-01T09:10:24Z</time>
</trkpt>
<trkpt lat="47.622112000" lon="16.794884000">
  <ele>121.000000</ele>
  <time>2012-05-01T09:10:57Z</time>
</trkpt>
<trkpt lat="47.621998000" lon="16.795498000">
  <ele>121.000000</ele>
  <time>2012-05-01T09:11:30Z</time>
</trkpt>
<trkpt lat="47.622124000" lon="16.795630000">
  <ele>121.000000</ele>
  <time>2012-05-01T09:12:03Z</time>
</trkpt>
<trkpt lat="47.621933000" lon="16.797636000">
  <ele>120.000000</ele>
  <time>2012-05-01T09:12:36Z</time>
</trkpt>
<trkpt lat="47.621521000" lon="16.798668000">
  <ele>120.000000</ele>
  <time>2012-05-01T09:13:09Z</time>
</trkpt>
<trkpt lat="47.621124000" lon="16.800730000">
  <ele>118.000000</ele>
  <time>2012-05-01T09:13:42Z</time>
</trkpt>
<trkpt lat="47.621899000" lon="16.801882000">
  <ele>119.000000</ele>
  <time>2012-05-01T09:14:15Z</time>
</trkpt>
<trkpt lat="47.622562000" lon="16.802462000">
  <ele>117.000000</ele>
  <time>2012-05-01T09:14:48Z</time>
</trkpt>
<trkpt lat="47.623737000" lon="16.805138000">
  <ele>118.000000</ele>
  <time>2012-05-01T09:15:21Z</time>
</trkpt>
<trkpt lat="47.624134000" lon="16.806389000">
  <ele>119.000000</ele>
  <time>2012-05-01T09:15:54Z</time>
</trkpt>
<trkpt lat="47.626064000" lon="16.816696000">
  <ele>120.000000</ele>
  <time>2012-05-01T09:16:27Z</time>
</trkpt>
<trkpt lat="47.626553000" lon="16.820284000">
  <ele>121.000000</ele>
  <time>2012-05-01T09:17:00Z</time>
</trkpt>
<trkpt lat="47.628357000" lon="16.829351000">
  <ele>116.000000</ele>
  <time>2012-05-01T09:17:33Z</time>
</trkpt>
<trkpt lat="47.628384000" lon="16.832609000">
  <ele>119.000000</ele>
  <time>2012-05-01T09:18:06Z</time>
</trkpt>
<trkpt lat="47.628563000" lon="16.833542000">
  <ele>117.000000</ele>
  <time>2012-05-01T09:18:39Z</time>
</trkpt>
<trkpt lat="47.628654000" lon="16.835680000">
  <ele>119.000000</ele>
  <time>2012-05-01T09:19:12Z</time>
</trkpt>
<trkpt lat="47.628796000" lon="16.835779000">
  <ele>119.000000</ele>
  <time>2012-05-01T09:19:45Z</time>
</trkpt>
<trkpt lat="47.629848000" lon="16.835264000">
  <ele>116.000000</ele>
  <time>2012-05-01T09:20:18Z</time>
</trkpt>
<trkpt lat="47.630100000" lon="16.835440000">
  <ele>116.000000</ele>
  <time>2012-05-01T09:20:51Z</time>
</trkpt>
<trkpt lat="47.633430000" lon="16.850245000">
  <ele>120.000000</ele>
  <time>2012-05-01T09:21:24Z</time>
</trkpt>
<trkpt lat="47.635391000" lon="16.857702000">
  <ele>117.000000</ele>
  <time>2012-05-01T09:21:57Z</time>
</trkpt>
<trkpt lat="47.636513000" lon="16.859402000">
  <ele>115.000000</ele>
  <time>2012-05-01T09:22:30Z</time>
</trkpt>
<trkpt lat="47.637905000" lon="16.862944000">
  <ele>117.000000</ele>
  <time>2012-05-01T09:23:03Z</time>
</trkpt>
<trkpt lat="47.638733000" lon="16.862671000">
  <ele>117.000000</ele>
  <time>2012-05-01T09:23:36Z</time>
</trkpt>
<trkpt lat="47.641113000" lon="16.862572000">
  <ele>118.000000</ele>
  <time>2012-05-01T09:24:09Z</time>
</trkpt>
<trkpt lat="47.646923000" lon="16.861332000">
  <ele>115.000000</ele>
  <time>2012-05-01T09:24:42Z</time>
</trkpt>
<trkpt lat="47.647869000" lon="16.860619000">
  <ele>115.000000</ele>
  <time>2012-05-01T09:25:15Z</time>
</trkpt>
<trkpt lat="47.649960000" lon="16.860355000">
  <ele>114.000000</ele>
  <time>2012-05-01T09:25:48Z</time>
</trkpt>
<trkpt lat="47.651085000" lon="16.860004000">
  <ele>116.000000</ele>
  <time>2012-05-01T09:26:21Z</time>
</trkpt>
<trkpt lat="47.652851000" lon="16.858688000">
  <ele>114.000000</ele>
  <time>2012-05-01T09:26:54Z</time>
</trkpt>
<trkpt lat="47.654804000" lon="16.857548000">
  <ele>116.000000</ele>
  <time>2012-05-01T09:27:27Z</time>
</trkpt>
<trkpt lat="47.655998000" lon="16.857208000">
  <ele>114.000000</ele>
  <time>2012-05-01T09:28:00Z</time>
</trkpt>
<trkpt lat="47.658459000" lon="16.857592000">
  <ele>115.000000</ele>
  <time>2012-05-01T09:28:33Z</time>
</trkpt>
<trkpt lat="47.658970000" lon="16.857395000">
  <ele>116.000000</ele>
  <time>2012-05-01T09:29:06Z</time>
</trkpt>
<trkpt lat="47.665977000" lon="16.851912000">
  <ele>116.000000</ele>
  <time>2012-05-01T09:29:39Z</time>
</trkpt>
<trkpt lat="47.669239000" lon="16.851988000">
  <ele>116.000000</ele>
  <time>2012-05-01T09:30:12Z</time>
</trkpt>
<trkpt lat="47.672939000" lon="16.853985000">
  <ele>116.000000</ele>
  <time>2012-05-01T09:30:45Z</time>
</trkpt>
<trkpt lat="47.673523000" lon="16.854017000">
  <ele>116.000000</ele>
  <time>2012-05-01T09:31:18Z</time>
</trkpt>
<trkpt lat="47.677944000" lon="16.848698000">
  <ele>116.000000</ele>
  <time>2012-05-01T09:31:51Z</time>
</trkpt>
<trkpt lat="47.678986000" lon="16.847919000">
  <ele>116.000000</ele>
  <time>2012-05-01T09:32:24Z</time>
</trkpt>
<trkpt lat="47.679775000" lon="16.846527000">
  <ele>116.000000</ele>
  <time>2012-05-01T09:32:57Z</time>
</trkpt>
<trkpt lat="47.689129000" lon="16.834858000">
  <ele>116.000000</ele>
  <time>2012-05-01T09:33:30Z</time>
</trkpt>
<trkpt lat="47.689449000" lon="16.834749000">
  <ele>116.000000</ele>
  <time>2012-05-01T09:34:03Z</time>
</trkpt>
<trkpt lat="47.692387000" lon="16.839485000">
  <ele>115.000000</ele>
  <time>2012-05-01T09:34:36Z</time>
</trkpt>
<trkpt lat="47.695992000" lon="16.850245000">
  <ele>115.000000</ele>
  <time>2012-05-01T09:35:09Z</time>
</trkpt>
<trkpt lat="47.703499000" lon="16.850683000">
  <ele>116.000000</ele>
  <time>2012-05-01T09:35:42Z</time>
</trkpt>
<trkpt lat="47.703815000" lon="16.850891000">
  <ele>116.000000</ele>
  <time>2012-05-01T09:36:15Z</time>
</trkpt>
<trkpt lat="47.713120000" lon="16.869272000">
  <ele>115.000000</ele>
  <time>2012-05-01T09:36:48Z</time>
</trkpt>
<trkpt lat="47.721493000" lon="16.868603000">
  <ele>115.000000</ele>
  <time>2012-05-01T09:37:21Z</time>
</trkpt>
<trkpt lat="47.724384000" lon="16.865456000">
  <ele>115.000000</ele>
  <time>2012-05-01T09:37:54Z</time>
</trkpt>
<trkpt lat="47.726246000" lon="16.861935000">
  <ele>116.000000</ele>
  <time>2012-05-01T09:38:27Z</time>
</trkpt>
<trkpt lat="47.732784000" lon="16.838751000">
  <ele>116.000000</ele>
  <time>2012-05-01T09:39:00Z</time>
</trkpt>
<trkpt lat="47.735256000" lon="16.835583000">
  <ele>116.000000</ele>
  <time>2012-05-01T09:39:33Z</time>
</trkpt>
<trkpt lat="47.739819000" lon="16.832500000">
  <ele>116.000000</ele>
  <time>2012-05-01T09:40:06Z</time>
</trkpt>
<trkpt lat="47.741417000" lon="16.831699000">
  <ele>117.000000</ele>
  <time>2012-05-01T09:40:39Z</time>
</trkpt>
<trkpt lat="47.742378000" lon="16.831503000">
  <ele>118.000000</ele>
  <time>2012-05-01T09:41:12Z</time>
</trkpt>
<trkpt lat="47.744385000" lon="16.830120000">
  <ele>119.000000</ele>
  <time>2012-05-01T09:41:45Z</time>
</trkpt>
<trkpt lat="47.746960000" lon="16.826862000">
  <ele>118.000000</ele>
  <time>2012-05-01T09:42:18Z</time>
</trkpt>
<trkpt lat="47.747635000" lon="16.824627000">
  <ele>118.000000</ele>
  <time>2012-05-01T09:42:51Z</time>
</trkpt>
<trkpt lat="47.756638000" lon="16.812496000">
  <ele>119.000000</ele>
  <time>2012-05-01T09:43:24Z</time>
</trkpt>
<trkpt lat="47.758224000" lon="16.810577000">
  <ele>119.000000</ele>
  <time>2012-05-01T09:43:57Z</time>
</trkpt>
<trkpt lat="47.758522000" lon="16.810425000">
  <ele>119.000000</ele>
  <time>2012-05-01T09:44:30Z</time>
</trkpt>
<trkpt lat="47.760841000" lon="16.807068000">
  <ele>118.000000</ele>
  <time>2012-05-01T09:45:03Z</time>
</trkpt>
<trkpt lat="47.761471000" lon="16.805588000">
  <ele>118.000000</ele>
  <time>2012-05-01T09:45:36Z</time>
</trkpt>
<trkpt lat="47.762123000" lon="16.803415000">
  <ele>118.000000</ele>
  <time>2012-05-01T09:46:09Z</time>
</trkpt>
<trkpt lat="47.763237000" lon="16.803362000">
  <ele>119.000000</ele>
  <time>2012-05-01T09:46:42Z</time>
</trkpt>
<trkpt lat="47.765224000" lon="16.804468000">
  <ele>119.000000</ele>
  <time>2012-05-01T09:47:15Z</time>
</trkpt>
<trkpt lat="47.768322000" lon="16.801037000">
  <ele>117.000000</ele>
  <time>2012-05-01T09:47:48Z</time>
</trkpt>
<trkpt lat="47.768745000" lon="16.801497000">
  <ele>117.000000</ele>
  <time>2012-05-01T09:48:21Z</time>
</trkpt>
<trkpt lat="47.769886000" lon="16.801332000">
  <ele>117.000000</ele>
  <time>2012-05-01T09:48:54Z</time>
</trkpt>
<trkpt lat="47.772446000" lon="16.799545000">
  <ele>117.000000</ele>
  <time>2012-05-01T09:49:27Z</time>
</trkpt>
<trkpt lat="47.776577000" lon="16.799467000">
  <ele>117.000000</ele>
  <time>2012-05-01T09:50:00Z</time>
</trkpt>
<trkpt lat="47.778652000" lon="16.803043000">
  <ele>121.000000</ele>
  <time>2012-05-01T09:50:33Z</time>
</trkpt>
<trkpt lat="47.797733000" lon="16.799467000">
  <ele>122.000000</ele>
  <time>2012-05-01T09:51:06Z</time>
</trkpt>
<trkpt lat="47.809933000" lon="16.804819000">
  <ele>121.000000</ele>
  <time>2012-05-01T09:51:39Z</time>
</trkpt>
<trkpt lat="47.811935000" lon="16.799534000">
  <ele>120.000000</ele>
  <time>2012-05-01T09:52:12Z</time>
</trkpt>
<trkpt lat="47.813328000" lon="16.798218000">
  <ele>118.000000</ele>
  <time>2012-05-01T09:52:45Z</time>
</trkpt>
<trkpt lat="47.815941000" lon="16.797331000">
  <ele>115.000000</ele>
  <time>2012-05-01T09:53:18Z</time>
</trkpt>
<trkpt lat="47.818539000" lon="16.796738000">
  <ele>115.000000</ele>
  <time>2012-05-01T09:53:51Z</time>
</trkpt>
<trkpt lat="47.818996000" lon="16.796003000">
  <ele>115.000000</ele>
  <time>2012-05-01T09:54:24Z</time>
</trkpt>
<trkpt lat="47.819229000" lon="16.793875000">
  <ele>116.000000</ele>
  <time>2012-05-01T09:54:57Z</time>
</trkpt>
<trkpt lat="47.819851000" lon="16.792330000">
  <ele>115.000000</ele>
  <time>2012-05-01T09:55:30Z</time>
</trkpt>
<trkpt lat="47.820057000" lon="16.792307000">
  <ele>115.000000</ele>
  <time>2012-05-01T09:56:03Z</time>
</trkpt>
<trkpt lat="47.830738000" lon="16.804249000">
  <ele>117.000000</ele>
  <time>2012-05-01T09:56:36Z</time>
</trkpt>
<trkpt lat="47.831734000" lon="16.805653000">
  <ele>117.000000</ele>
  <time>2012-05-01T09:57:09Z</time>
</trkpt>
<trkpt lat="47.844051000" lon="16.818605000">
  <ele>115.000000</ele>
  <time>2012-05-01T09:57:42Z</time>
</trkpt>
<trkpt lat="47.844650000" lon="16.818398000">
  <ele>115.000000</ele>
  <time>2012-05-01T09:58:15Z</time>
</trkpt>
<trkpt lat="47.845856000" lon="16.819878000">
  <ele>116.000000</ele>
  <time>2012-05-01T09:58:48Z</time>
</trkpt>
<trkpt lat="47.849434000" lon="16.823112000">
  <ele>118.000000</ele>
  <time>2012-05-01T09:59:21Z</time>
</trkpt>
<trkpt lat="47.850754000" lon="16.823935000">
  <ele>118.000000</ele>
  <time>2012-05-01T09:59:54Z</time>
</trkpt>
<trkpt lat="47.853912000" lon="16.826897000">
  <ele>118.000000</ele>
  <time>2012-05-01T10:00:27Z</time>
</trkpt>
<trkpt lat="47.858639000" lon="16.830910000">
  <ele>118.000000</ele>
  <time>2012-05-01T10:01:00Z</time>
</trkpt>
<trkpt lat="47.859970000" lon="16.832466000">
  <ele>118.000000</ele>
  <time>2012-05-01T10:01:33Z</time>
</trkpt>
<trkpt lat="47.861961000" lon="16.835285000">
  <ele>118.000000</ele>
  <time>2012-05-01T10:02:06Z</time>
</trkpt>
<trkpt lat="47.862358000" lon="16.834574000">
  <ele>117.000000</ele>
  <time>2012-05-01T10:02:39Z</time>
</trkpt>
<trkpt lat="47.863480000" lon="16.835890000">
  <ele>117.000000</ele>
  <time>2012-05-01T10:03:12Z</time>
</trkpt>
<trkpt lat="47.864048000" lon="16.836020000">
  <ele>117.000000</ele>
  <time>2012-05-01T10:03:45Z</time>
</trkpt>
<trkpt lat="47.864342000" lon="16.835472000">
  <ele>117.000000</ele>
  <time>2012-05-01T10:04:18Z</time>
</trkpt>
<trkpt lat="47.867683000" lon="16.838718000">
  <ele>118.000000</ele>
  <time>2012-05-01T10:04:51Z</time>
</trkpt>
<trkpt lat="47.873219000" lon="16.843325000">
  <ele>119.000000</ele>
  <time>2012-05-01T10:05:24Z</time>
</trkpt>
<trkpt lat="47.877197000" lon="16.847031000">
  <ele>118.000000</ele>
  <time>2012-05-01T10:05:57Z</time>
</trkpt>
<trkpt lat="47.877819000" lon="16.846767000">
  <ele>117.000000</ele>
  <time>2012-05-01T10:06:30Z</time>
</trkpt>
<trkpt lat="47.880817000" lon="16.849201000">
  <ele>118.000000</ele>
  <time>2012-05-01T10:07:03Z</time>
</trkpt>
<trkpt lat="47.881123000" lon="16.849773000">
  <ele>118.000000</ele>
  <time>2012-05-01T10:07:36Z</time>
</trkpt>
<trkpt lat="47.882122000" lon="16.850760000">
  <ele>118.000000</ele>
  <time>2012-05-01T10:08:09Z</time>
</trkpt>
<trkpt lat="47.884495000" lon="16.852087000">
  <ele>117.000000</ele>
  <time>2012-05-01T10:08:42Z</time>
</trkpt>
<trkpt lat="47.885704000" lon="16.853029000">
  <ele>117.000000</ele>
  <time>2012-05-01T10:09:15Z</time>
</trkpt>
<trkpt lat="47.888336000" lon="16.854225000">
  <ele>117.000000</ele>
  <time>2012-05-01T10:09:48Z</time>
</trkpt>
<trkpt lat="47.889084000" lon="16.854336000">
  <ele>117.000000</ele>
  <time>2012-05-01T10:10:21Z</time>
</trkpt>
<trkpt lat="47.891651000" lon="16.855980000">
  <ele>117.000000</ele>
  <time>2012-05-01T10:10:54Z</time>
</trkpt>
<trkpt lat="47.895138000" lon="16.857855000">
  <ele>117.000000</ele>
  <time>2012-05-01T10:11:27Z</time>
</trkpt>
<trkpt lat="47.895550000" lon="16.857866000">
  <ele>116.000000</ele>
  <time>2012-05-01T10:12:00Z</time>
</trkpt>
<trkpt lat="47.897591000" lon="16.858776000">
  <ele>117.000000</ele>
  <time>2012-05-01T10:12:33Z</time>
</trkpt>
<trkpt lat="47.900085000" lon="16.860390000">
  <ele>117.000000</ele>
  <time>2012-05-01T10:13:06Z</time>
</trkpt>
<trkpt lat="47.900867000" lon="16.860346000">
  <ele>116.000000</ele>
  <time>2012-05-01T10:13:39Z</time>
</trkpt>
<trkpt lat="47.903366000" lon="16.861309000">
  <ele>117.000000</ele>
  <time>2012-05-01T10:14:12Z</time>
</trkpt>
<trkpt lat="47.903851000" lon="16.861671000">
  <ele>117.000000</ele>
  <time>2012-05-01T10:14:45Z</time>
</trkpt>
<trkpt lat="47.904228000" lon="16.861551000">
  <ele>117.000000</ele>
  <time>2012-05-01T10:15:18Z</time>
</trkpt>
<trkpt lat="47.909000000" lon="16.862581000">
  <ele>116.000000</ele>
  <time>2012-05-01T10:15:51Z</time>
</trkpt>
<trkpt lat="47.909386000" lon="16.862505000">
  <ele>116.000000</ele>
  <time>2012-05-01T10:16:24Z</time>
</trkpt>
<trkpt lat="47.912216000" lon="16.863668000">
  <ele>118.000000</ele>
  <time>2012-05-01T10:16:57Z</time>
</trkpt>
<trkpt lat="47.915737000" lon="16.864666000">
  <ele>117.000000</ele>
  <time>2012-05-01T10:17:30Z</time>
</trkpt>
<trkpt lat="47.920029000" lon="16.864763000">
  <ele>117.000000</ele>
  <time>2012-05-01T10:18:03Z</time>
</trkpt>
<trkpt lat="47.920418000" lon="16.865105000">
  <ele>118.000000</ele>
  <time>2012-05-01T10:18:36Z</time>
</trkpt>
<trkpt lat="47.925331000" lon="16.863876000">
  <ele>118.000000</ele>
  <time>2012-05-01T10:19:09Z</time>
</trkpt>
<trkpt lat="47.925152000" lon="16.863195000">
  <ele>117.000000</ele>
  <time>2012-05-01T10:19:42Z</time>
</trkpt>
<trkpt lat="47.928261000" lon="16.861364000">
  <ele>115.000000</ele>
  <time>2012-05-01T10:20:15Z</time>
</trkpt>
<trkpt lat="47.930107000" lon="16.859884000">
  <ele>115.000000</ele>
  <time>2012-05-01T10:20:48Z</time>
</trkpt>
<trkpt lat="47.934494000" lon="16.852625000">
  <ele>115.000000</ele>
  <time>2012-05-01T10:21:21Z</time>
</trkpt>
<trkpt lat="47.934692000" lon="16.851681000">
  <ele>115.000000</ele>
  <time>2012-05-01T10:21:54Z</time>
</trkpt>
<trkpt lat="47.937809000" lon="16.843906000">
  <ele>116.000000</ele>
  <time>2012-05-01T10:22:27Z</time>
</trkpt>
<trkpt lat="47.937790000" lon="16.843567000">
  <ele>116.000000</ele>
  <time>2012-05-01T10:23:00Z</time>
</trkpt>
<trkpt lat="47.939426000" lon="16.839432000">
  <ele>116.000000</ele>
  <time>2012-05-01T10:23:33Z</time>
</trkpt>
<trkpt lat="47.939991000" lon="16.839935000">
  <ele>117.000000</ele>
  <time>2012-05-01T10:24:06Z</time>
</trkpt>
<trkpt lat="47.943378000" lon="16.841888000">
  <ele>117.000000</ele>
  <time>2012-05-01T10:24:39Z</time>
</trkpt>
<trkpt lat="47.944340000" lon="16.836908000">
  <ele>116.000000</ele>
  <time>2012-05-01T10:25:12Z</time>
</trkpt>
<trkpt lat="47.944923000" lon="16.835791000">
  <ele>116.000000</ele>
  <time>2012-05-01T10:25:45Z</time>
</trkpt>
<trkpt lat="47.946854000" lon="16.830448000">
  <ele>115.000000</ele>
  <time>2012-05-01T10:26:18Z</time>
</trkpt>
<trkpt lat="47.947105000" lon="16.830582000">
  <ele>115.000000</ele>
  <time>2012-05-01T10:26:51Z</time>
</trkpt>
<trkpt lat="47.948166000" lon="16.827927000">
  <ele>116.000000</ele>
  <time>2012-05-01T10:27:24Z</time>
</trkpt>
<trkpt lat="47.950680000" lon="16.829716000">
  <ele>117.000000</ele>
  <time>2012-05-01T10:27:57Z</time>
</trkpt>
<trkpt lat="47.951401000" lon="16.827192000">
  <ele>118.000000</ele>
  <time>2012-05-01T10:28:30Z</time>
</trkpt>
<trkpt lat="47.951839000" lon="16.824636000">
  <ele>118.000000</ele>
  <time>2012-05-01T10:29:03Z</time>
</trkpt>
<trkpt lat="47.952145000" lon="16.819384000">
  <ele>117.000000</ele>
  <time>2012-05-01T10:29:36Z</time>
</trkpt>
<trkpt lat="47.953789000" lon="16.814438000">
  <ele>118.000000</ele>
  <time>2012-05-01T10:30:09Z</time>
</trkpt>
<trkpt lat="47.953896000" lon="16.813681000">
  <ele>118.000000</ele>
  <time>2012-05-01T10:30:42Z</time>
</trkpt>
<trkpt lat="47.953835000" lon="16.812508000">
  <ele>117.000000</ele>
  <time>2012-05-01T10:31:15Z</time>
</trkpt>
<trkpt lat="47.953983000" lon="16.811897000">
  <ele>117.000000</ele>
  <time>2012-05-01T10:31:48Z</time>
</trkpt>
<trkpt lat="47.953854000" lon="16.805786000">
  <ele>117.000000</ele>
  <time>2012-05-01T10:32:21Z</time>
</trkpt>
<trkpt lat="47.954819000" lon="16.799906000">
  <ele>117.000000</ele>
  <time>2012-05-01T10:32:54Z</time>
</trkpt>
<trkpt lat="47.954815000" lon="16.798916000">
  <ele>117.000000</ele>
  <time>2012-05-01T10:33:27Z</time>
</trkpt>
<trkpt lat="47.954498000" lon="16.796644000">
  <ele>117.000000</ele>
  <time>2012-05-01T10:34:00Z</time>
</trkpt>
<trkpt lat="47.954189000" lon="16.788683000">
  <ele>118.000000</ele>
  <time>2012-05-01T10:34:33Z</time>
</trkpt>
<trkpt lat="47.953766000" lon="16.785421000">
  <ele>117.000000</ele>
  <time>2012-05-01T10:35:06Z</time>
</trkpt>
<trkpt lat="47.955833000" lon="16.784239000">
  <ele>119.000000</ele>
  <time>2012-05-01T10:35:39Z</time>
</trkpt>
<trkpt lat="47.954926000" lon="16.782005000">
  <ele>119.000000</ele>
  <time>2012-05-01T10:36:12Z</time>
</trkpt>
<trkpt lat="47.954525000" lon="16.781376000">
  <ele>118.000000</ele>
  <time>2012-05-01T10:36:45Z</time>
</trkpt>
<trkpt lat="47.954033000" lon="16.779411000">
  <ele>119.000000</ele>
  <time>2012-05-01T10:37:18Z</time>
</trkpt>
<trkpt lat="47.952705000" lon="16.776363000">
  <ele>123.000000</ele>
  <time>2012-05-01T10:37:51Z</time>
</trkpt>
<trkpt lat="47.951241000" lon="16.773985000">
  <ele>125.000000</ele>
  <time>2012-05-01T10:38:24Z</time>
</trkpt>
<trkpt lat="47.950840000" lon="16.773584000">
  <ele>126.000000</ele>
  <time>2012-05-01T10:38:57Z</time>
</trkpt>
<trkpt lat="47.949890000" lon="16.771866000">
  <ele>121.000000</ele>
  <time>2012-05-01T10:39:30Z</time>
</trkpt>
<trkpt lat="47.949127000" lon="16.768965000">
  <ele>123.000000</ele>
  <time>2012-05-01T10:40:03Z</time>
</trkpt>
<trkpt lat="47.948124000" lon="16.763597000">
  <ele>127.000000</ele>
  <time>2012-05-01T10:40:36Z</time>
</trkpt>
<trkpt lat="47.948097000" lon="16.759953000">
  <ele>125.000000</ele>
  <time>2012-05-01T10:41:09Z</time>
</trkpt>
<trkpt lat="47.947903000" lon="16.758478000">
  <ele>124.000000</ele>
  <time>2012-05-01T10:41:42Z</time>
</trkpt>
<trkpt lat="47.947590000" lon="16.758179000">
  <ele>123.000000</ele>
  <time>2012-05-01T10:42:15Z</time>
</trkpt>
<trkpt lat="47.947342000" lon="16.757542000">
  <ele>123.000000</ele>
  <time>2012-05-01T10:42:48Z</time>
</trkpt>
<trkpt lat="47.947155000" lon="16.756174000">
  <ele>123.000000</ele>
  <time>2012-05-01T10:43:21Z</time>
</trkpt>
<trkpt lat="47.945469000" lon="16.752306000">
  <ele>125.000000</ele>
  <time>2012-05-01T10:43:54Z</time>
</trkpt>
<trkpt lat="47.945690000" lon="16.751492000">
  <ele>126.000000</ele>
  <time>2012-05-01T10:44:27Z</time>
</trkpt>
<trkpt lat="47.943382000" lon="16.747946000">
  <ele>122.000000</ele>
  <time>2012-05-01T10:45:00Z</time>
</trkpt>
<trkpt lat="47.943123000" lon="16.748037000">
  <ele>122.000000</ele>
  <time>2012-05-01T10:45:33Z</time>
</trkpt>
<trkpt lat="47.941822000" lon="16.745129000">
  <ele>122.000000</ele>
  <time>2012-05-01T10:46:06Z</time>
</trkpt>
<trkpt lat="47.941597000" lon="16.743893000">
  <ele>122.000000</ele>
  <time>2012-05-01T10:46:39Z</time>
</trkpt>
<trkpt lat="47.937805000" lon="16.738918000">
  <ele>122.000000</ele>
  <time>2012-05-01T10:47:12Z</time>
</trkpt>
<trkpt lat="47.937431000" lon="16.739349000">
  <ele>120.000000</ele>
  <time>2012-05-01T10:47:45Z</time>
</trkpt>
<trkpt lat="47.935993000" lon="16.738251000">
  <ele>117.000000</ele>
  <time>2012-05-01T10:48:18Z</time>
</trkpt>
<trkpt lat="47.935181000" lon="16.736877000">
  <ele>117.000000</ele>
  <time>2012-05-01T10:48:51Z</time>
</trkpt>
<trkpt lat="47.933296000" lon="16.734406000">
  <ele>117.000000</ele>
  <time>2012-05-01T10:49:24Z</time>
</trkpt>
<trkpt lat="47.930805000" lon="16.731588000">
  <ele>119.000000</ele>
  <time>2012-05-01T10:49:57Z</time>
</trkpt>
<trkpt lat="47.930195000" lon="16.730330000">
  <ele>120.000000</ele>
  <time>2012-05-01T10:50:30Z</time>
</trkpt>
<trkpt lat="47.929932000" lon="16.729116000">
  <ele>120.000000</ele>
  <time>2012-05-01T10:51:03Z</time>
</trkpt>
<trkpt lat="47.930096000" lon="16.728916000">
  <ele>122.000000</ele>
  <time>2012-05-01T10:51:36Z</time>
</trkpt>
<trkpt lat="47.928185000" lon="16.724972000">
  <ele>119.000000</ele>
  <time>2012-05-01T10:52:09Z</time>
</trkpt>
<trkpt lat="47.927826000" lon="16.722960000">
  <ele>118.000000</ele>
  <time>2012-05-01T10:52:42Z</time>
</trkpt>
<trkpt lat="47.926903000" lon="16.720221000">
  <ele>118.000000</ele>
  <time>2012-05-01T10:53:15Z</time>
</trkpt>
<trkpt lat="47.925053000" lon="16.718040000">
  <ele>118.000000</ele>
  <time>2012-05-01T10:53:48Z</time>
</trkpt>
<trkpt lat="47.924274000" lon="16.715145000">
  <ele>118.000000</ele>
  <time>2012-05-01T10:54:21Z</time>
</trkpt>
<trkpt lat="47.922764000" lon="16.713127000">
  <ele>118.000000</ele>
  <time>2012-05-01T10:54:54Z</time>
</trkpt>
<trkpt lat="47.921879000" lon="16.712643000">
  <ele>118.000000</ele>
  <time>2012-05-01T10:55:27Z</time>
</trkpt>
<trkpt lat="47.921513000" lon="16.712023000">
  <ele>118.000000</ele>
  <time>2012-05-01T10:56:00Z</time>
</trkpt>
<trkpt lat="47.919594000" lon="16.707092000">
  <ele>118.000000</ele>
  <time>2012-05-01T10:56:33Z</time>
</trkpt>
<trkpt lat="47.916599000" lon="16.703056000">
  <ele>118.000000</ele>
  <time>2012-05-01T10:57:06Z</time>
</trkpt>
<trkpt lat="47.915771000" lon="16.702879000">
  <ele>118.000000</ele>
  <time>2012-05-01T10:57:39Z</time>
</trkpt>
<trkpt lat="47.913609000" lon="16.700415000">
  <ele>119.000000</ele>
  <time>2012-05-01T10:58:12Z</time>
</trkpt>
<trkpt lat="47.914207000" lon="16.698435000">
  <ele>121.000000</ele>
  <time>2012-05-01T10:58:45Z</time>
</trkpt>
<trkpt lat="47.912506000" lon="16.699310000">
  <ele>120.000000</ele>
  <time>2012-05-01T10:59:18Z</time>
</trkpt>
<trkpt lat="47.911903000" lon="16.698727000">
  <ele>121.000000</ele>
  <time>2012-05-01T10:59:51Z</time>
</trkpt>
<trkpt lat="47.912628000" lon="16.697475000">
  <ele>123.000000</ele>
  <time>2012-05-01T11:00:24Z</time>
</trkpt>
<trkpt lat="47.911816000" lon="16.696630000">
  <ele>125.000000</ele>
  <time>2012-05-01T11:00:57Z</time>
</trkpt>
<trkpt lat="47.911221000" lon="16.695595000">
  <ele>127.000000</ele>
  <time>2012-05-01T11:01:30Z</time>
</trkpt>
<trkpt lat="47.911156000" lon="16.695702000">
  <ele>127.000000</ele>
  <time>2012-05-01T11:02:03Z</time>
</trkpt>
<trkpt lat="47.907284000" lon="16.691933000">
  <ele>124.000000</ele>
  <time>2012-05-01T11:02:36Z</time>
</trkpt>
<trkpt lat="47.906364000" lon="16.690582000">
  <ele>122.000000</ele>
  <time>2012-05-01T11:03:09Z</time>
</trkpt>
<trkpt lat="47.905529000" lon="16.690098000">
  <ele>121.000000</ele>
  <time>2012-05-01T11:03:42Z</time>
</trkpt>
<trkpt lat="47.903767000" lon="16.688580000">
  <ele>118.000000</ele>
  <time>2012-05-01T11:04:15Z</time>
</trkpt>
<trkpt lat="47.901943000" lon="16.684717000">
  <ele>117.000000</ele>
  <time>2012-05-01T11:04:48Z</time>
</trkpt>
<trkpt lat="47.900467000" lon="16.680443000">
  <ele>117.000000</ele>
  <time>2012-05-01T11:05:21Z</time>
</trkpt>
<trkpt lat="47.898857000" lon="16.676519000">
  <ele>117.000000</ele>
  <time>2012-05-01T11:05:54Z</time>
</trkpt>
<trkpt lat="47.902706000" lon="16.672098000">
  <ele>123.000000</ele>
  <time>2012-05-01T11:06:27Z</time>
</trkpt>
<trkpt lat="47.901108000" lon="16.671040000">
  <ele>121.000000</ele>
  <time>2012-05-01T11:07:00Z</time>
</trkpt>
<trkpt lat="47.901154000" lon="16.670725000">
  <ele>121.000000</ele>
  <time>2012-05-01T11:07:33Z</time>
</trkpt>
<trkpt lat="47.899216000" lon="16.667921000">
  <ele>119.000000</ele>
  <time>2012-05-01T11:08:06Z</time>
</trkpt>
<trkpt lat="47.899506000" lon="16.667225000">
  <ele>119.000000</ele>
  <time>2012-05-01T11:08:39Z</time>
</trkpt>
<trkpt lat="47.899342000" lon="16.665779000">
  <ele>120.000000</ele>
  <time>2012-05-01T11:09:12Z</time>
</trkpt>
<trkpt lat="47.893585000" lon="16.657911000">
  <ele>129.000000</ele>
  <time>2012-05-01T11:09:45Z</time>
</trkpt>
<trkpt lat="47.893467000" lon="16.656990000">
  <ele>131.000000</ele>
  <time>2012-05-01T11:10:18Z</time>
</trkpt>
<trkpt lat="47.891903000" lon="16.656162000">
  <ele>132.000000</ele>
  <time>2012-05-01T11:10:51Z</time>
</trkpt>
<trkpt lat="47.891544000" lon="16.657261000">
  <ele>130.000000</ele>
  <time>2012-05-01T11:11:24Z</time>
</trkpt>
<trkpt lat="47.889565000" lon="16.659477000">
  <ele>125.000000</ele>
  <time>2012-05-01T11:11:57Z</time>
</trkpt>
<trkpt lat="47.889217000" lon="16.659639000">
  <ele>125.000000</ele>
  <time>2012-05-01T11:12:30Z</time>
</trkpt>
<trkpt lat="47.885105000" lon="16.659170000">
  <ele>123.000000</ele>
  <time>2012-05-01T11:13:03Z</time>
</trkpt>
<trkpt lat="47.881947000" lon="16.658566000">
  <ele>121.000000</ele>
  <time>2012-05-01T11:13:36Z</time>
</trkpt>
<trkpt lat="47.881042000" lon="16.657713000">
  <ele>122.000000</ele>
  <time>2012-05-01T11:14:09Z</time>
</trkpt>
<trkpt lat="47.879337000" lon="16.657005000">
  <ele>123.000000</ele>
  <time>2012-05-01T11:14:42Z</time>
</trkpt>
<trkpt lat="47.878811000" lon="16.657068000">
  <ele>122.000000</ele>
  <time>2012-05-01T11:15:15Z</time>
</trkpt>
<trkpt lat="47.875847000" lon="16.656485000">
  <ele>121.000000</ele>
  <time>2012-05-01T11:15:48Z</time>
</trkpt>
<trkpt lat="47.875294000" lon="16.656071000">
  <ele>122.000000</ele>
  <time>2012-05-01T11:16:21Z</time>
</trkpt>
<trkpt lat="47.873886000" lon="16.655947000">
  <ele>122.000000</ele>
  <time>2012-05-01T11:16:54Z</time>
</trkpt>
<trkpt lat="47.873913000" lon="16.650099000">
  <ele>128.000000</ele>
  <time>2012-05-01T11:17:27Z</time>
</trkpt>
<trkpt lat="47.873787000" lon="16.649099000">
  <ele>129.000000</ele>
  <time>2012-05-01T11:18:00Z</time>
</trkpt>
<trkpt lat="47.869541000" lon="16.647856000">
  <ele>130.000000</ele>
  <time>2012-05-01T11:18:33Z</time>
</trkpt>
<trkpt lat="47.867699000" lon="16.650919000">
  <ele>126.000000</ele>
  <time>2012-05-01T11:19:06Z</time>
</trkpt>
<trkpt lat="47.867580000" lon="16.651365000">
  <ele>126.000000</ele>
  <time>2012-05-01T11:19:39Z</time>
</trkpt>
<trkpt lat="47.863945000" lon="16.655809000">
  <ele>122.000000</ele>
  <time>2012-05-01T11:20:12Z</time>
</trkpt>
<trkpt lat="47.862953000" lon="16.656462000">
  <ele>122.000000</ele>
  <time>2012-05-01T11:20:45Z</time>
</trkpt>
<trkpt lat="47.862812000" lon="16.656860000">
  <ele>122.000000</ele>
  <time>2012-05-01T11:21:18Z</time>
</trkpt>
<trkpt lat="47.862556000" lon="16.656624000">
  <ele>122.000000</ele>
  <time>2012-05-01T11:21:51Z</time>
</trkpt>
<trkpt lat="47.856323000" lon="16.660154000">
  <ele>123.000000</ele>
  <time>2012-05-01T11:22:24Z</time>
</trkpt>
<trkpt lat="47.849648000" lon="16.663071000">
  <ele>125.000000</ele>
  <time>2012-05-01T11:22:57Z</time>
</trkpt>
<trkpt lat="47.847256000" lon="16.664728000">
  <ele>126.000000</ele>
  <time>2012-05-01T11:23:30Z</time>
</trkpt>
<trkpt lat="47.842850000" lon="16.666271000">
  <ele>120.000000</ele>
  <time>2012-05-01T11:24:03Z</time>
</trkpt>
<trkpt lat="47.840630000" lon="16.665857000">
  <ele>119.000000</ele>
  <time>2012-05-01T11:24:36Z</time>
</trkpt>
<trkpt lat="47.836781000" lon="16.666733000">
  <ele>118.000000</ele>
  <time>2012-05-01T11:25:09Z</time>
</trkpt>
<trkpt lat="47.835342000" lon="16.666794000">
  <ele>119.000000</ele>
  <time>2012-05-01T11:25:42Z</time>
</trkpt>
<trkpt lat="47.834248000" lon="16.666578000">
  <ele>120.000000</ele>
  <time>2012-05-01T11:26:15Z</time>
</trkpt>
<trkpt lat="47.832413000" lon="16.667122000">
  <ele>120.000000</ele>
  <time>2012-05-01T11:26:48Z</time>
</trkpt>
<trkpt lat="47.832275000" lon="16.666988000">
  <ele>120.000000</ele>
  <time>2012-05-01T11:27:21Z</time>
</trkpt>
<trkpt lat="47.831802000" lon="16.664616000">
  <ele>124.000000</ele>
  <time>2012-05-01T11:27:54Z</time>
</trkpt>
</trkseg>
</trk>
</gpx>
